sensor_id;sensor_type;location;lat;lon;timestamp;P1;durP1;ratioP1;P2;durP2;ratioP2
18159;SDS011;9205;52.032;4.314;2023-04-29T00:01:29;18.83;;;8.97;;
18159;SDS011;9205;52.032;4.314;2023-04-29T00:03:56;21.40;;;9.47;;
18159;SDS011;9205;52.032;4.314;2023-04-29T00:06:24;22.83;;;9.33;;
18159;SDS011;9205;52.032;4.314;2023-04-29T00:08:52;22.37;;;9.60;;
18159;SDS011;9205;52.032;4.314;2023-04-29T00:11:19;16.27;;;8.50;;
18159;SDS011;9205;52.032;4.314;2023-04-29T00:13:46;22.20;;;8.63;;
18159;SDS011;9205;52.032;4.314;2023-04-29T00:16:13;18.70;;;8.50;;
18159;SDS011;9205;52.032;4.314;2023-04-29T00:18:40;18.53;;;8.90;;
18159;SDS011;9205;52.032;4.314;2023-04-29T00:21:08;17.50;;;8.93;;
18159;SDS011;9205;52.032;4.314;2023-04-29T00:23:36;15.43;;;8.37;;
18159;SDS011;9205;52.032;4.314;2023-04-29T00:26:03;23.97;;;9.30;;
18159;SDS011;9205;52.032;4.314;2023-04-29T00:28:30;18.77;;;9.07;;
18159;SDS011;9205;52.032;4.314;2023-04-29T00:30:58;22.23;;;9.90;;
18159;SDS011;9205;52.032;4.314;2023-04-29T00:33:25;19.67;;;8.97;;
18159;SDS011;9205;52.032;4.314;2023-04-29T00:35:52;21.03;;;9.90;;
18159;SDS011;9205;52.032;4.314;2023-04-29T00:38:19;19.47;;;9.70;;
18159;SDS011;9205;52.032;4.314;2023-04-29T00:40:48;15.87;;;8.37;;
18159;SDS011;9205;52.032;4.314;2023-04-29T00:43:16;21.33;;;9.83;;
18159;SDS011;9205;52.032;4.314;2023-04-29T00:45:43;19.10;;;8.00;;
18159;SDS011;9205;52.032;4.314;2023-04-29T00:48:11;17.93;;;8.10;;
18159;SDS011;9205;52.032;4.314;2023-04-29T00:50:39;19.87;;;8.87;;
18159;SDS011;9205;52.032;4.314;2023-04-29T00:53:07;13.70;;;8.10;;
18159;SDS011;9205;52.032;4.314;2023-04-29T00:55:36;15.50;;;7.90;;
18159;SDS011;9205;52.032;4.314;2023-04-29T00:58:06;15.17;;;8.57;;
18159;SDS011;9205;52.032;4.314;2023-04-29T01:00:34;17.87;;;8.20;;
18159;SDS011;9205;52.032;4.314;2023-04-29T01:03:02;12.97;;;7.60;;
18159;SDS011;9205;52.032;4.314;2023-04-29T01:05:31;15.30;;;8.03;;
18159;SDS011;9205;52.032;4.314;2023-04-29T01:08:03;17.53;;;7.47;;
18159;SDS011;9205;52.032;4.314;2023-04-29T01:10:48;16.43;;;7.97;;
18159;SDS011;9205;52.032;4.314;2023-04-29T01:13:26;19.00;;;7.97;;
18159;SDS011;9205;52.032;4.314;2023-04-29T01:16:01;15.83;;;7.90;;
18159;SDS011;9205;52.032;4.314;2023-04-29T01:18:35;15.80;;;8.03;;
18159;SDS011;9205;52.032;4.314;2023-04-29T01:21:07;16.73;;;8.07;;
18159;SDS011;9205;52.032;4.314;2023-04-29T01:23:36;15.40;;;7.47;;
18159;SDS011;9205;52.032;4.314;2023-04-29T01:26:03;13.00;;;7.50;;
18159;SDS011;9205;52.032;4.314;2023-04-29T01:28:39;13.17;;;8.23;;
18159;SDS011;9205;52.032;4.314;2023-04-29T01:31:17;18.40;;;9.00;;
18159;SDS011;9205;52.032;4.314;2023-04-29T01:34:04;18.33;;;8.27;;
18159;SDS011;9205;52.032;4.314;2023-04-29T01:36:40;15.77;;;8.23;;
18159;SDS011;9205;52.032;4.314;2023-04-29T01:39:19;15.80;;;8.53;;
18159;SDS011;9205;52.032;4.314;2023-04-29T01:42:09;18.33;;;8.33;;
18159;SDS011;9205;52.032;4.314;2023-04-29T01:44:44;17.73;;;8.10;;
18159;SDS011;9205;52.032;4.314;2023-04-29T01:47:19;16.00;;;8.20;;
18159;SDS011;9205;52.032;4.314;2023-04-29T01:49:50;18.87;;;8.10;;
18159;SDS011;9205;52.032;4.314;2023-04-29T01:52:17;19.47;;;8.27;;
18159;SDS011;9205;52.032;4.314;2023-04-29T01:54:53;19.27;;;8.27;;
18159;SDS011;9205;52.032;4.314;2023-04-29T01:57:20;17.20;;;8.53;;
18159;SDS011;9205;52.032;4.314;2023-04-29T01:59:54;18.57;;;8.90;;
18159;SDS011;9205;52.032;4.314;2023-04-29T02:02:39;16.43;;;8.07;;
18159;SDS011;9205;52.032;4.314;2023-04-29T02:05:17;18.97;;;8.13;;
18159;SDS011;9205;52.032;4.314;2023-04-29T02:07:53;20.90;;;8.80;;
18159;SDS011;9205;52.032;4.314;2023-04-29T02:10:21;13.53;;;7.63;;
18159;SDS011;9205;52.032;4.314;2023-04-29T02:12:55;24.63;;;8.53;;
18159;SDS011;9205;52.032;4.314;2023-04-29T02:15:25;16.00;;;7.77;;
18159;SDS011;9205;52.032;4.314;2023-04-29T02:17:53;16.90;;;8.03;;
18159;SDS011;9205;52.032;4.314;2023-04-29T02:20:20;18.80;;;7.73;;
18159;SDS011;9205;52.032;4.314;2023-04-29T02:22:47;12.10;;;7.20;;
18159;SDS011;9205;52.032;4.314;2023-04-29T02:25:14;14.33;;;7.83;;
18159;SDS011;9205;52.032;4.314;2023-04-29T02:27:43;16.30;;;8.90;;
18159;SDS011;9205;52.032;4.314;2023-04-29T02:30:10;16.67;;;8.03;;
18159;SDS011;9205;52.032;4.314;2023-04-29T02:32:39;16.87;;;8.20;;
18159;SDS011;9205;52.032;4.314;2023-04-29T02:35:06;17.77;;;7.63;;
18159;SDS011;9205;52.032;4.314;2023-04-29T02:37:34;17.37;;;8.10;;
18159;SDS011;9205;52.032;4.314;2023-04-29T02:40:02;13.90;;;7.63;;
18159;SDS011;9205;52.032;4.314;2023-04-29T02:42:30;18.13;;;8.33;;
18159;SDS011;9205;52.032;4.314;2023-04-29T02:45:01;15.97;;;7.70;;
18159;SDS011;9205;52.032;4.314;2023-04-29T02:47:28;15.90;;;7.73;;
18159;SDS011;9205;52.032;4.314;2023-04-29T02:49:55;14.70;;;7.80;;
18159;SDS011;9205;52.032;4.314;2023-04-29T02:52:22;16.97;;;7.90;;
18159;SDS011;9205;52.032;4.314;2023-04-29T02:54:49;14.47;;;7.53;;
18159;SDS011;9205;52.032;4.314;2023-04-29T02:57:16;15.57;;;7.47;;
18159;SDS011;9205;52.032;4.314;2023-04-29T02:59:43;15.07;;;7.57;;
18159;SDS011;9205;52.032;4.314;2023-04-29T03:02:12;14.37;;;7.13;;
18159;SDS011;9205;52.032;4.314;2023-04-29T03:04:41;15.30;;;7.50;;
18159;SDS011;9205;52.032;4.314;2023-04-29T03:07:08;20.50;;;8.63;;
18159;SDS011;9205;52.032;4.314;2023-04-29T03:09:35;15.97;;;6.80;;
18159;SDS011;9205;52.032;4.314;2023-04-29T03:12:03;13.63;;;7.57;;
18159;SDS011;9205;52.032;4.314;2023-04-29T03:14:30;14.37;;;6.77;;
18159;SDS011;9205;52.032;4.314;2023-04-29T03:16:57;15.10;;;6.77;;
18159;SDS011;9205;52.032;4.314;2023-04-29T03:19:26;13.17;;;7.37;;
18159;SDS011;9205;52.032;4.314;2023-04-29T03:21:53;15.37;;;7.37;;
18159;SDS011;9205;52.032;4.314;2023-04-29T03:24:20;13.07;;;7.70;;
18159;SDS011;9205;52.032;4.314;2023-04-29T03:26:48;13.90;;;6.67;;
18159;SDS011;9205;52.032;4.314;2023-04-29T03:29:18;14.00;;;7.07;;
18159;SDS011;9205;52.032;4.314;2023-04-29T03:31:45;14.90;;;6.93;;
18159;SDS011;9205;52.032;4.314;2023-04-29T03:34:13;16.10;;;7.20;;
18159;SDS011;9205;52.032;4.314;2023-04-29T03:36:46;16.90;;;7.17;;
18159;SDS011;9205;52.032;4.314;2023-04-29T03:39:13;14.57;;;7.57;;
18159;SDS011;9205;52.032;4.314;2023-04-29T03:41:41;12.87;;;7.13;;
18159;SDS011;9205;52.032;4.314;2023-04-29T03:44:08;13.67;;;7.47;;
18159;SDS011;9205;52.032;4.314;2023-04-29T03:46:36;16.37;;;6.50;;
18159;SDS011;9205;52.032;4.314;2023-04-29T03:49:03;15.23;;;7.30;;
18159;SDS011;9205;52.032;4.314;2023-04-29T03:51:30;12.40;;;6.70;;
18159;SDS011;9205;52.032;4.314;2023-04-29T03:54:10;12.83;;;6.80;;
18159;SDS011;9205;52.032;4.314;2023-04-29T03:56:38;21.07;;;7.37;;
18159;SDS011;9205;52.032;4.314;2023-04-29T03:59:05;14.17;;;6.87;;
18159;SDS011;9205;52.032;4.314;2023-04-29T04:01:32;19.10;;;7.20;;
18159;SDS011;9205;52.032;4.314;2023-04-29T04:04:00;13.57;;;7.00;;
18159;SDS011;9205;52.032;4.314;2023-04-29T04:06:28;13.50;;;6.43;;
18159;SDS011;9205;52.032;4.314;2023-04-29T04:08:56;14.93;;;7.03;;
18159;SDS011;9205;52.032;4.314;2023-04-29T04:11:28;15.33;;;7.70;;
18159;SDS011;9205;52.032;4.314;2023-04-29T04:13:58;13.00;;;7.13;;
18159;SDS011;9205;52.032;4.314;2023-04-29T04:16:26;17.10;;;7.07;;
18159;SDS011;9205;52.032;4.314;2023-04-29T04:18:53;15.53;;;7.20;;
18159;SDS011;9205;52.032;4.314;2023-04-29T04:21:20;14.10;;;6.73;;
18159;SDS011;9205;52.032;4.314;2023-04-29T04:23:57;14.20;;;6.43;;
18159;SDS011;9205;52.032;4.314;2023-04-29T04:26:26;13.47;;;7.07;;
18159;SDS011;9205;52.032;4.314;2023-04-29T04:29:13;14.47;;;6.83;;
18159;SDS011;9205;52.032;4.314;2023-04-29T04:32:03;13.73;;;6.83;;
18159;SDS011;9205;52.032;4.314;2023-04-29T04:34:31;13.40;;;6.87;;
18159;SDS011;9205;52.032;4.314;2023-04-29T04:37:00;13.97;;;6.00;;
18159;SDS011;9205;52.032;4.314;2023-04-29T04:39:28;20.37;;;7.60;;
18159;SDS011;9205;52.032;4.314;2023-04-29T04:41:58;21.53;;;6.80;;
18159;SDS011;9205;52.032;4.314;2023-04-29T04:44:29;12.57;;;7.07;;
18159;SDS011;9205;52.032;4.314;2023-04-29T04:47:01;14.53;;;7.70;;
18159;SDS011;9205;52.032;4.314;2023-04-29T04:49:41;15.47;;;7.33;;
18159;SDS011;9205;52.032;4.314;2023-04-29T04:52:08;15.53;;;7.43;;
18159;SDS011;9205;52.032;4.314;2023-04-29T04:54:36;17.77;;;7.33;;
18159;SDS011;9205;52.032;4.314;2023-04-29T04:57:15;14.27;;;6.80;;
18159;SDS011;9205;52.032;4.314;2023-04-29T04:59:43;15.97;;;7.50;;
18159;SDS011;9205;52.032;4.314;2023-04-29T05:02:10;12.13;;;6.73;;
18159;SDS011;9205;52.032;4.314;2023-04-29T05:04:37;19.83;;;7.03;;
18159;SDS011;9205;52.032;4.314;2023-04-29T05:07:05;14.83;;;7.17;;
18159;SDS011;9205;52.032;4.314;2023-04-29T05:09:48;19.03;;;7.27;;
18159;SDS011;9205;52.032;4.314;2023-04-29T05:12:17;22.07;;;7.93;;
18159;SDS011;9205;52.032;4.314;2023-04-29T05:14:44;16.43;;;7.77;;
18159;SDS011;9205;52.032;4.314;2023-04-29T05:17:11;18.30;;;7.70;;
18159;SDS011;9205;52.032;4.314;2023-04-29T05:19:39;15.43;;;7.50;;
18159;SDS011;9205;52.032;4.314;2023-04-29T05:22:06;15.00;;;7.67;;
18159;SDS011;9205;52.032;4.314;2023-04-29T05:24:33;17.70;;;8.23;;
18159;SDS011;9205;52.032;4.314;2023-04-29T05:27:00;19.43;;;8.53;;
18159;SDS011;9205;52.032;4.314;2023-04-29T05:29:30;17.20;;;8.17;;
18159;SDS011;9205;52.032;4.314;2023-04-29T05:32:00;22.33;;;8.13;;
18159;SDS011;9205;52.032;4.314;2023-04-29T05:34:27;19.50;;;8.37;;
18159;SDS011;9205;52.032;4.314;2023-04-29T05:36:54;21.47;;;9.50;;
18159;SDS011;9205;52.032;4.314;2023-04-29T05:39:23;22.03;;;9.33;;
18159;SDS011;9205;52.032;4.314;2023-04-29T05:42:03;24.10;;;9.57;;
18159;SDS011;9205;52.032;4.314;2023-04-29T05:44:38;20.67;;;10.23;;
18159;SDS011;9205;52.032;4.314;2023-04-29T05:47:05;23.77;;;9.50;;
18159;SDS011;9205;52.032;4.314;2023-04-29T05:49:32;23.90;;;10.43;;
18159;SDS011;9205;52.032;4.314;2023-04-29T05:51:59;28.23;;;11.00;;
18159;SDS011;9205;52.032;4.314;2023-04-29T05:54:31;22.47;;;9.90;;
18159;SDS011;9205;52.032;4.314;2023-04-29T05:56:58;25.93;;;10.87;;
18159;SDS011;9205;52.032;4.314;2023-04-29T05:59:27;23.73;;;10.87;;
18159;SDS011;9205;52.032;4.314;2023-04-29T06:01:56;21.83;;;9.53;;
18159;SDS011;9205;52.032;4.314;2023-04-29T06:04:24;25.83;;;10.10;;
18159;SDS011;9205;52.032;4.314;2023-04-29T06:07:10;24.10;;;9.63;;
18159;SDS011;9205;52.032;4.314;2023-04-29T06:10:01;21.07;;;10.47;;
18159;SDS011;9205;52.032;4.314;2023-04-29T06:12:29;20.73;;;9.67;;
18159;SDS011;9205;52.032;4.314;2023-04-29T06:14:57;25.10;;;9.73;;
18159;SDS011;9205;52.032;4.314;2023-04-29T06:17:26;20.40;;;9.47;;
18159;SDS011;9205;52.032;4.314;2023-04-29T06:19:54;21.33;;;9.03;;
18159;SDS011;9205;52.032;4.314;2023-04-29T06:22:22;18.73;;;8.53;;
18159;SDS011;9205;52.032;4.314;2023-04-29T06:24:52;20.57;;;8.17;;
18159;SDS011;9205;52.032;4.314;2023-04-29T06:27:37;17.10;;;8.63;;
18159;SDS011;9205;52.032;4.314;2023-04-29T06:30:05;21.53;;;8.67;;
18159;SDS011;9205;52.032;4.314;2023-04-29T06:32:35;20.30;;;9.03;;
18159;SDS011;9205;52.032;4.314;2023-04-29T06:35:04;18.93;;;8.93;;
18159;SDS011;9205;52.032;4.314;2023-04-29T06:37:55;14.33;;;8.17;;
18159;SDS011;9205;52.032;4.314;2023-04-29T06:40:41;19.37;;;8.10;;
18159;SDS011;9205;52.032;4.314;2023-04-29T06:43:11;17.93;;;8.33;;
18159;SDS011;9205;52.032;4.314;2023-04-29T06:46:00;16.80;;;8.13;;
18159;SDS011;9205;52.032;4.314;2023-04-29T06:48:35;18.10;;;7.77;;
18159;SDS011;9205;52.032;4.314;2023-04-29T06:51:03;17.80;;;7.33;;
18159;SDS011;9205;52.032;4.314;2023-04-29T06:53:34;19.30;;;7.03;;
18159;SDS011;9205;52.032;4.314;2023-04-29T06:56:01;13.43;;;5.93;;
18159;SDS011;9205;52.032;4.314;2023-04-29T06:58:29;22.17;;;7.23;;
18159;SDS011;9205;52.032;4.314;2023-04-29T07:00:56;16.17;;;7.30;;
18159;SDS011;9205;52.032;4.314;2023-04-29T07:03:24;15.93;;;6.50;;
18159;SDS011;9205;52.032;4.314;2023-04-29T07:05:52;15.20;;;6.73;;
18159;SDS011;9205;52.032;4.314;2023-04-29T07:08:19;15.53;;;6.43;;
18159;SDS011;9205;52.032;4.314;2023-04-29T07:10:52;10.60;;;5.23;;
18159;SDS011;9205;52.032;4.314;2023-04-29T07:13:22;14.60;;;6.33;;
18159;SDS011;9205;52.032;4.314;2023-04-29T07:15:49;11.43;;;5.90;;
18159;SDS011;9205;52.032;4.314;2023-04-29T07:18:17;13.30;;;5.97;;
18159;SDS011;9205;52.032;4.314;2023-04-29T07:20:44;14.17;;;5.47;;
18159;SDS011;9205;52.032;4.314;2023-04-29T07:23:14;13.37;;;5.67;;
18159;SDS011;9205;52.032;4.314;2023-04-29T07:25:41;13.83;;;5.97;;
18159;SDS011;9205;52.032;4.314;2023-04-29T07:28:08;11.23;;;5.37;;
18159;SDS011;9205;52.032;4.314;2023-04-29T07:30:35;11.93;;;5.63;;
18159;SDS011;9205;52.032;4.314;2023-04-29T07:33:03;12.60;;;5.30;;
18159;SDS011;9205;52.032;4.314;2023-04-29T07:35:30;13.33;;;6.33;;
18159;SDS011;9205;52.032;4.314;2023-04-29T07:37:58;17.40;;;6.13;;
18159;SDS011;9205;52.032;4.314;2023-04-29T07:40:26;10.20;;;5.20;;
18159;SDS011;9205;52.032;4.314;2023-04-29T07:42:56;9.63;;;5.20;;
18159;SDS011;9205;52.032;4.314;2023-04-29T07:45:23;16.80;;;6.90;;
18159;SDS011;9205;52.032;4.314;2023-04-29T07:47:50;14.93;;;5.90;;
18159;SDS011;9205;52.032;4.314;2023-04-29T07:50:18;13.47;;;5.77;;
18159;SDS011;9205;52.032;4.314;2023-04-29T07:52:45;13.27;;;5.53;;
18159;SDS011;9205;52.032;4.314;2023-04-29T07:55:15;15.87;;;6.03;;
18159;SDS011;9205;52.032;4.314;2023-04-29T07:57:43;9.63;;;5.53;;
18159;SDS011;9205;52.032;4.314;2023-04-29T08:00:11;14.87;;;5.73;;
18159;SDS011;9205;52.032;4.314;2023-04-29T08:02:41;13.77;;;5.67;;
18159;SDS011;9205;52.032;4.314;2023-04-29T08:05:12;12.17;;;5.43;;
18159;SDS011;9205;52.032;4.314;2023-04-29T08:07:39;12.00;;;5.43;;
18159;SDS011;9205;52.032;4.314;2023-04-29T08:10:07;12.43;;;5.40;;
18159;SDS011;9205;52.032;4.314;2023-04-29T08:12:36;11.80;;;5.13;;
18159;SDS011;9205;52.032;4.314;2023-04-29T08:15:05;11.60;;;5.40;;
18159;SDS011;9205;52.032;4.314;2023-04-29T08:17:33;10.33;;;5.00;;
18159;SDS011;9205;52.032;4.314;2023-04-29T08:20:01;13.50;;;5.70;;
18159;SDS011;9205;52.032;4.314;2023-04-29T08:22:28;7.27;;;4.47;;
18159;SDS011;9205;52.032;4.314;2023-04-29T08:24:55;9.50;;;4.93;;
18159;SDS011;9205;52.032;4.314;2023-04-29T08:27:22;8.73;;;4.30;;
18159;SDS011;9205;52.032;4.314;2023-04-29T08:29:50;8.33;;;4.60;;
18159;SDS011;9205;52.032;4.314;2023-04-29T08:32:18;10.53;;;4.03;;
18159;SDS011;9205;52.032;4.314;2023-04-29T08:34:45;9.00;;;4.80;;
18159;SDS011;9205;52.032;4.314;2023-04-29T08:37:12;10.90;;;4.33;;
18159;SDS011;9205;52.032;4.314;2023-04-29T08:39:40;10.20;;;4.40;;
18159;SDS011;9205;52.032;4.314;2023-04-29T08:42:11;14.17;;;5.13;;
18159;SDS011;9205;52.032;4.314;2023-04-29T08:44:38;8.50;;;4.43;;
18159;SDS011;9205;52.032;4.314;2023-04-29T08:47:06;6.17;;;3.80;;
18159;SDS011;9205;52.032;4.314;2023-04-29T08:49:37;11.83;;;4.67;;
18159;SDS011;9205;52.032;4.314;2023-04-29T08:52:04;10.73;;;4.17;;
18159;SDS011;9205;52.032;4.314;2023-04-29T08:54:31;9.83;;;4.30;;
18159;SDS011;9205;52.032;4.314;2023-04-29T08:57:00;10.60;;;4.63;;
18159;SDS011;9205;52.032;4.314;2023-04-29T08:59:28;7.77;;;4.60;;
18159;SDS011;9205;52.032;4.314;2023-04-29T09:01:57;14.67;;;5.27;;
18159;SDS011;9205;52.032;4.314;2023-04-29T09:04:29;9.17;;;4.73;;
18159;SDS011;9205;52.032;4.314;2023-04-29T09:07:07;8.90;;;4.07;;
18159;SDS011;9205;52.032;4.314;2023-04-29T09:09:37;10.53;;;4.80;;
18159;SDS011;9205;52.032;4.314;2023-04-29T09:12:05;11.03;;;4.77;;
18159;SDS011;9205;52.032;4.314;2023-04-29T09:14:33;7.83;;;4.37;;
18159;SDS011;9205;52.032;4.314;2023-04-29T09:17:02;11.00;;;4.40;;
18159;SDS011;9205;52.032;4.314;2023-04-29T09:19:29;7.57;;;4.60;;
18159;SDS011;9205;52.032;4.314;2023-04-29T09:22:00;8.03;;;4.67;;
18159;SDS011;9205;52.032;4.314;2023-04-29T09:24:29;14.03;;;4.87;;
18159;SDS011;9205;52.032;4.314;2023-04-29T09:26:57;8.00;;;4.83;;
18159;SDS011;9205;52.032;4.314;2023-04-29T09:29:25;11.77;;;4.63;;
18159;SDS011;9205;52.032;4.314;2023-04-29T09:31:53;11.10;;;4.33;;
18159;SDS011;9205;52.032;4.314;2023-04-29T09:34:29;13.23;;;4.90;;
18159;SDS011;9205;52.032;4.314;2023-04-29T09:37:01;9.13;;;4.03;;
18159;SDS011;9205;52.032;4.314;2023-04-29T09:39:37;11.33;;;4.83;;
18159;SDS011;9205;52.032;4.314;2023-04-29T09:42:05;7.37;;;4.13;;
18159;SDS011;9205;52.032;4.314;2023-04-29T09:44:33;11.67;;;4.83;;
18159;SDS011;9205;52.032;4.314;2023-04-29T09:47:02;10.37;;;4.10;;
18159;SDS011;9205;52.032;4.314;2023-04-29T09:49:31;7.97;;;4.00;;
18159;SDS011;9205;52.032;4.314;2023-04-29T09:52:03;5.90;;;3.73;;
18159;SDS011;9205;52.032;4.314;2023-04-29T09:54:32;6.97;;;3.87;;
18159;SDS011;9205;52.032;4.314;2023-04-29T09:57:02;8.80;;;4.33;;
18159;SDS011;9205;52.032;4.314;2023-04-29T09:59:32;10.90;;;4.20;;
18159;SDS011;9205;52.032;4.314;2023-04-29T10:02:05;7.50;;;4.07;;
18159;SDS011;9205;52.032;4.314;2023-04-29T10:04:39;6.87;;;3.20;;
18159;SDS011;9205;52.032;4.314;2023-04-29T10:07:13;6.70;;;3.63;;
18159;SDS011;9205;52.032;4.314;2023-04-29T10:09:41;10.13;;;4.60;;
18159;SDS011;9205;52.032;4.314;2023-04-29T10:12:12;10.17;;;3.87;;
18159;SDS011;9205;52.032;4.314;2023-04-29T10:14:44;9.70;;;3.57;;
18159;SDS011;9205;52.032;4.314;2023-04-29T10:17:21;7.40;;;3.90;;
18159;SDS011;9205;52.032;4.314;2023-04-29T10:20:00;8.70;;;3.60;;
18159;SDS011;9205;52.032;4.314;2023-04-29T10:22:35;6.83;;;3.53;;
18159;SDS011;9205;52.032;4.314;2023-04-29T10:25:11;7.27;;;3.50;;
18159;SDS011;9205;52.032;4.314;2023-04-29T10:27:42;7.70;;;3.77;;
18159;SDS011;9205;52.032;4.314;2023-04-29T10:30:11;6.13;;;3.37;;
18159;SDS011;9205;52.032;4.314;2023-04-29T10:32:40;9.07;;;3.80;;
18159;SDS011;9205;52.032;4.314;2023-04-29T10:35:09;6.93;;;3.67;;
18159;SDS011;9205;52.032;4.314;2023-04-29T10:37:40;8.37;;;3.60;;
18159;SDS011;9205;52.032;4.314;2023-04-29T10:40:10;7.37;;;3.73;;
18159;SDS011;9205;52.032;4.314;2023-04-29T10:42:43;5.60;;;3.60;;
18159;SDS011;9205;52.032;4.314;2023-04-29T10:45:16;6.47;;;3.37;;
18159;SDS011;9205;52.032;4.314;2023-04-29T10:50:39;7.27;;;3.67;;
18159;SDS011;9205;52.032;4.314;2023-04-29T10:53:29;8.10;;;4.50;;
18159;SDS011;9205;52.032;4.314;2023-04-29T10:55:58;7.90;;;3.80;;
18159;SDS011;9205;52.032;4.314;2023-04-29T10:58:34;8.17;;;3.83;;
18159;SDS011;9205;52.032;4.314;2023-04-29T11:01:10;5.47;;;3.30;;
18159;SDS011;9205;52.032;4.314;2023-04-29T11:03:49;7.40;;;4.10;;
18159;SDS011;9205;52.032;4.314;2023-04-29T11:06:22;9.10;;;3.80;;
18159;SDS011;9205;52.032;4.314;2023-04-29T11:09:07;8.27;;;4.07;;
18159;SDS011;9205;52.032;4.314;2023-04-29T11:11:41;10.07;;;4.20;;
18159;SDS011;9205;52.032;4.314;2023-04-29T11:14:14;7.13;;;4.17;;
18159;SDS011;9205;52.032;4.314;2023-04-29T11:16:52;5.70;;;4.00;;
18159;SDS011;9205;52.032;4.314;2023-04-29T11:19:23;9.23;;;4.10;;
18159;SDS011;9205;52.032;4.314;2023-04-29T11:22:08;7.43;;;4.03;;
18159;SDS011;9205;52.032;4.314;2023-04-29T11:27:29;8.00;;;4.00;;
18159;SDS011;9205;52.032;4.314;2023-04-29T11:29:58;8.83;;;4.30;;
18159;SDS011;9205;52.032;4.314;2023-04-29T11:32:29;8.57;;;4.50;;
18159;SDS011;9205;52.032;4.314;2023-04-29T11:35:07;6.27;;;3.80;;
18159;SDS011;9205;52.032;4.314;2023-04-29T11:37:36;6.93;;;3.63;;
18159;SDS011;9205;52.032;4.314;2023-04-29T11:40:07;5.77;;;3.60;;
18159;SDS011;9205;52.032;4.314;2023-04-29T11:42:39;8.50;;;3.73;;
18159;SDS011;9205;52.032;4.314;2023-04-29T11:45:09;9.47;;;4.43;;
18159;SDS011;9205;52.032;4.314;2023-04-29T11:47:40;8.97;;;3.47;;
18159;SDS011;9205;52.032;4.314;2023-04-29T11:50:09;7.47;;;4.13;;
18159;SDS011;9205;52.032;4.314;2023-04-29T11:52:37;8.03;;;3.77;;
18159;SDS011;9205;52.032;4.314;2023-04-29T11:55:08;6.70;;;3.73;;
18159;SDS011;9205;52.032;4.314;2023-04-29T11:57:37;6.53;;;4.00;;
18159;SDS011;9205;52.032;4.314;2023-04-29T12:00:06;9.53;;;3.90;;
18159;SDS011;9205;52.032;4.314;2023-04-29T12:02:37;9.43;;;4.30;;
18159;SDS011;9205;52.032;4.314;2023-04-29T12:05:04;8.47;;;4.17;;
18159;SDS011;9205;52.032;4.314;2023-04-29T12:07:33;8.30;;;3.90;;
18159;SDS011;9205;52.032;4.314;2023-04-29T12:10:01;8.30;;;4.30;;
18159;SDS011;9205;52.032;4.314;2023-04-29T12:12:30;9.17;;;4.27;;
18159;SDS011;9205;52.032;4.314;2023-04-29T12:15:00;7.37;;;4.13;;
18159;SDS011;9205;52.032;4.314;2023-04-29T12:17:29;7.63;;;3.80;;
18159;SDS011;9205;52.032;4.314;2023-04-29T12:19:57;9.70;;;3.97;;
18159;SDS011;9205;52.032;4.314;2023-04-29T12:22:29;8.00;;;4.17;;
18159;SDS011;9205;52.032;4.314;2023-04-29T12:24:57;5.90;;;3.83;;
18159;SDS011;9205;52.032;4.314;2023-04-29T12:27:25;8.20;;;4.33;;
18159;SDS011;9205;52.032;4.314;2023-04-29T12:29:55;7.90;;;3.93;;
18159;SDS011;9205;52.032;4.314;2023-04-29T12:32:23;8.00;;;4.20;;
18159;SDS011;9205;52.032;4.314;2023-04-29T12:34:50;8.53;;;4.30;;
18159;SDS011;9205;52.032;4.314;2023-04-29T12:37:18;9.87;;;4.53;;
18159;SDS011;9205;52.032;4.314;2023-04-29T12:39:48;7.90;;;3.67;;
18159;SDS011;9205;52.032;4.314;2023-04-29T12:42:15;8.27;;;4.13;;
18159;SDS011;9205;52.032;4.314;2023-04-29T12:44:43;9.87;;;3.73;;
18159;SDS011;9205;52.032;4.314;2023-04-29T12:47:13;9.97;;;4.07;;
18159;SDS011;9205;52.032;4.314;2023-04-29T12:49:42;8.20;;;4.50;;
18159;SDS011;9205;52.032;4.314;2023-04-29T12:52:11;6.30;;;3.97;;
18159;SDS011;9205;52.032;4.314;2023-04-29T12:54:40;7.87;;;3.73;;
18159;SDS011;9205;52.032;4.314;2023-04-29T12:57:08;8.90;;;4.27;;
18159;SDS011;9205;52.032;4.314;2023-04-29T12:59:36;8.73;;;3.57;;
18159;SDS011;9205;52.032;4.314;2023-04-29T13:02:03;9.80;;;3.70;;
18159;SDS011;9205;52.032;4.314;2023-04-29T13:04:35;4.17;;;2.80;;
18159;SDS011;9205;52.032;4.314;2023-04-29T13:07:02;6.80;;;3.60;;
18159;SDS011;9205;52.032;4.314;2023-04-29T13:09:29;4.60;;;3.20;;
18159;SDS011;9205;52.032;4.314;2023-04-29T13:11:58;8.80;;;3.40;;
18159;SDS011;9205;52.032;4.314;2023-04-29T13:14:25;7.93;;;3.37;;
18159;SDS011;9205;52.032;4.314;2023-04-29T13:16:52;7.43;;;3.33;;
18159;SDS011;9205;52.032;4.314;2023-04-29T13:19:19;4.70;;;3.33;;
18159;SDS011;9205;52.032;4.314;2023-04-29T13:21:48;5.43;;;2.97;;
18159;SDS011;9205;52.032;4.314;2023-04-29T13:24:15;6.77;;;3.20;;
18159;SDS011;9205;52.032;4.314;2023-04-29T13:26:44;5.33;;;2.77;;
18159;SDS011;9205;52.032;4.314;2023-04-29T13:29:12;6.37;;;2.97;;
18159;SDS011;9205;52.032;4.314;2023-04-29T13:31:41;5.93;;;3.13;;
18159;SDS011;9205;52.032;4.314;2023-04-29T13:34:09;4.63;;;3.17;;
18159;SDS011;9205;52.032;4.314;2023-04-29T13:36:36;7.07;;;3.20;;
18159;SDS011;9205;52.032;4.314;2023-04-29T13:39:05;7.03;;;3.43;;
18159;SDS011;9205;52.032;4.314;2023-04-29T13:41:33;5.93;;;3.20;;
18159;SDS011;9205;52.032;4.314;2023-04-29T13:44:01;6.20;;;3.00;;
18159;SDS011;9205;52.032;4.314;2023-04-29T13:46:28;5.07;;;2.60;;
18159;SDS011;9205;52.032;4.314;2023-04-29T13:48:56;7.13;;;2.97;;
18159;SDS011;9205;52.032;4.314;2023-04-29T13:51:23;4.90;;;2.87;;
18159;SDS011;9205;52.032;4.314;2023-04-29T13:53:51;9.77;;;3.03;;
18159;SDS011;9205;52.032;4.314;2023-04-29T13:56:19;7.37;;;3.30;;
18159;SDS011;9205;52.032;4.314;2023-04-29T13:58:46;5.43;;;3.10;;
18159;SDS011;9205;52.032;4.314;2023-04-29T14:01:14;5.57;;;3.00;;
18159;SDS011;9205;52.032;4.314;2023-04-29T14:03:42;4.63;;;2.70;;
18159;SDS011;9205;52.032;4.314;2023-04-29T14:06:10;8.23;;;3.40;;
18159;SDS011;9205;52.032;4.314;2023-04-29T14:08:37;6.17;;;2.60;;
18159;SDS011;9205;52.032;4.314;2023-04-29T14:11:04;4.20;;;2.50;;
18159;SDS011;9205;52.032;4.314;2023-04-29T14:13:33;6.67;;;2.40;;
18159;SDS011;9205;52.032;4.314;2023-04-29T14:16:00;4.80;;;2.40;;
18159;SDS011;9205;52.032;4.314;2023-04-29T14:18:30;5.90;;;2.50;;
18159;SDS011;9205;52.032;4.314;2023-04-29T14:20:57;3.47;;;2.50;;
18159;SDS011;9205;52.032;4.314;2023-04-29T14:23:25;6.13;;;2.73;;
18159;SDS011;9205;52.032;4.314;2023-04-29T14:25:52;3.63;;;2.27;;
18159;SDS011;9205;52.032;4.314;2023-04-29T14:28:20;4.37;;;2.27;;
18159;SDS011;9205;52.032;4.314;2023-04-29T14:30:48;4.13;;;2.30;;
18159;SDS011;9205;52.032;4.314;2023-04-29T14:33:15;7.57;;;2.30;;
18159;SDS011;9205;52.032;4.314;2023-04-29T14:35:42;5.63;;;2.10;;
18159;SDS011;9205;52.032;4.314;2023-04-29T14:38:10;6.93;;;2.90;;
18159;SDS011;9205;52.032;4.314;2023-04-29T14:40:37;5.33;;;2.30;;
18159;SDS011;9205;52.032;4.314;2023-04-29T14:43:04;3.93;;;2.50;;
18159;SDS011;9205;52.032;4.314;2023-04-29T14:45:32;6.70;;;2.90;;
18159;SDS011;9205;52.032;4.314;2023-04-29T14:48:00;5.27;;;2.53;;
18159;SDS011;9205;52.032;4.314;2023-04-29T14:50:28;7.77;;;3.00;;
18159;SDS011;9205;52.032;4.314;2023-04-29T14:52:55;6.87;;;2.50;;
18159;SDS011;9205;52.032;4.314;2023-04-29T14:55:24;6.70;;;3.13;;
18159;SDS011;9205;52.032;4.314;2023-04-29T14:57:51;5.93;;;3.07;;
18159;SDS011;9205;52.032;4.314;2023-04-29T15:00:18;5.33;;;3.10;;
18159;SDS011;9205;52.032;4.314;2023-04-29T15:02:45;6.07;;;3.20;;
18159;SDS011;9205;52.032;4.314;2023-04-29T15:05:16;7.87;;;3.03;;
18159;SDS011;9205;52.032;4.314;2023-04-29T15:07:43;5.37;;;2.77;;
18159;SDS011;9205;52.032;4.314;2023-04-29T15:10:10;6.13;;;2.93;;
18159;SDS011;9205;52.032;4.314;2023-04-29T15:12:38;8.17;;;3.00;;
18159;SDS011;9205;52.032;4.314;2023-04-29T15:15:05;5.10;;;2.63;;